Overview Statistics Trail Chart Weather Telemetry Raw packets
 

This is the latest recevied weather packets stored in our database for station/object NY3Q. If no packets are shown the sender has not sent any weather packets the latest 10 day(s).

<< 1 2 3 4 >>
Time Temp. Humidity Pressure Rain* Wind** Luminosity Snow
1788620332 31.11° C 76% 1015 hPa 0 mm - 121 W/m² -
1788620032 31.67° C 76% 1014.9 hPa 0 mm - 118 W/m² -
1788619731 31.67° C 77% 1015 hPa 0 mm - 181 W/m² -
1788619427 30.56° C 80% 1014.7 hPa 0 mm - 418 W/m² -
1788619125 30° C 82% 1015 hPa 0 mm - 416 W/m² -
1788618820 30° C 79% 1015 hPa 0 mm - 70 W/m² -
1788618519 30.56° C 79% 1014.9 hPa 0 mm - 112 W/m² -
1788618218 30.56° C 79% 1014.9 hPa 0 mm - 461 W/m² -
1788617914 30.56° C 80% 1014.8 hPa 0 mm - 103 W/m² -
1788617609 30° C 83% 1014.8 hPa 0 mm - 307 W/m² -
1788617306 30° C 81% 1015.1 hPa 0 mm - 85 W/m² -
1788617005 30° C 81% 1014.9 hPa 0 mm - 116 W/m² -
1788616704 30° C 81% 1015.1 hPa 0 mm - 113 W/m² -
1788616400 30° C 80% 1015.1 hPa 0 mm - 158 W/m² -
1788616096 30° C 80% 1015 hPa 0 mm - 163 W/m² -
1788615795 30.56° C 79% 1015 hPa 0 mm - 120 W/m² -
1788615494 30.56° C 80% 1014.9 hPa 0 mm - 96 W/m² -
1788615190 30° C 83% 1014.6 hPa 0 mm - 156 W/m² -
1788614889 30° C 83% 1014.8 hPa 0 mm - 82 W/m² -
1788614585 29.44° C 84% 1014.7 hPa 0 mm - 227 W/m² -
1788614285 29.44° C 86% 1014.8 hPa 0 mm - 69 W/m² -
1788613980 29.44° C 88% 1014.7 hPa 0 mm - 136 W/m² -
1788613675 29.44° C 89% 1015.1 hPa 0 mm - 71 W/m² -
1788613374 28.89° C 91% 1015 hPa 0 mm - 195 W/m² -
1788613069 28.89° C 94% 1014.9 hPa 0 mm - 176 W/m² -

* Rain latest hour (hover to see other rain measurements)
** Current wind speed in m/s (hover to see current wind gust speed)